Terminal Aerodrome Forecast
Issued by NWS

Home | Current Version | Previous Version | Text Only | Print | Product List | Glossary Off
Versions: 1 2 3 4 5 6 7 8 9 10 11 12 13 14

000
FTUS45 KGGW 161730
TAFOLF
TAF
KOLF 161730Z 1618/1718 VRB03KT P6SM SCT130
     FM170000 23004KT 2SM BR SCT003 BKN110
     FM170200 24004KT 1SM BR SCT003 BKN050
     FM170400 26004KT 1/2SM FG SCT002 BKN045 WS020/25035KT
     FM171200 25007KT 3SM BR BKN025 WS020/27040KT
     FM171500 26009KT P6SM BKN120 WS020/27040KT=

USA.gov is the U.S. government's official web portal to all federal, state and local government web resources and services.